createdAt,value
2023-11-24T00:02:25.959Z,1.40
2023-11-24T00:04:56.540Z,1.70
2023-11-24T00:07:27.044Z,1.80
2023-11-24T00:09:58.468Z,1.50
2023-11-24T00:12:33.294Z,2.10
2023-11-24T00:15:05.552Z,1.57
2023-11-24T00:17:37.504Z,1.60
2023-11-24T00:20:09.556Z,1.47
2023-11-24T00:22:40.116Z,1.60
2023-11-24T00:25:11.303Z,1.33
2023-11-24T00:27:44.777Z,1.40
2023-11-24T00:30:16.102Z,1.37
2023-11-24T00:32:47.623Z,1.67
2023-11-24T00:35:18.331Z,1.73
2023-11-24T00:37:49.619Z,1.43
2023-11-24T00:40:20.395Z,1.40
2023-11-24T00:42:53.733Z,1.60
2023-11-24T00:45:25.000Z,1.40
2023-11-24T00:47:55.650Z,1.70
2023-11-24T00:50:26.298Z,1.10
2023-11-24T00:52:56.856Z,1.30
2023-11-24T00:55:27.807Z,1.33
2023-11-24T00:58:01.294Z,1.77
2023-11-24T01:00:32.040Z,1.30
2023-11-24T01:03:02.644Z,1.20
2023-11-24T01:05:34.491Z,1.50
2023-11-24T01:08:05.649Z,1.57
2023-11-24T01:10:36.240Z,1.47
2023-11-24T01:13:09.389Z,1.27
2023-11-24T01:15:37.429Z,1.07
2023-11-24T01:18:08.528Z,1.20
2023-11-24T01:20:39.300Z,1.13
2023-11-24T01:23:10.010Z,1.13
2023-11-24T01:25:40.898Z,1.27
2023-11-24T01:28:15.029Z,1.17
2023-11-24T01:30:45.860Z,1.50
2023-11-24T01:33:16.544Z,1.20
2023-11-24T01:35:47.299Z,1.50
2023-11-24T01:38:17.898Z,1.20
2023-11-24T01:40:48.576Z,1.83
2023-11-24T01:43:21.804Z,1.40
2023-11-24T01:45:52.666Z,1.20
2023-11-24T01:48:23.618Z,2.23
2023-11-24T01:50:54.557Z,1.40
2023-11-24T01:53:25.482Z,1.80
2023-11-24T01:55:56.436Z,1.40
2023-11-24T01:58:31.752Z,1.70
2023-11-24T02:01:02.913Z,1.87
2023-11-24T02:03:33.797Z,1.63
2023-11-24T02:06:04.660Z,2.07
2023-11-24T02:08:35.671Z,2.03
2023-11-24T02:11:06.776Z,1.90
2023-11-24T02:13:39.948Z,2.30
2023-11-24T02:16:12.275Z,2.30
2023-11-24T02:18:43.112Z,2.00
2023-11-24T02:21:14.127Z,2.00
2023-11-24T02:23:48.185Z,2.10
2023-11-24T02:26:18.817Z,1.83
2023-11-24T02:28:49.604Z,2.77
2023-11-24T02:31:20.379Z,2.30
2023-11-24T02:33:52.815Z,1.93
2023-11-24T02:36:29.079Z,2.20
2023-11-24T02:39:04.567Z,2.07
2023-11-24T02:41:36.145Z,1.63
2023-11-24T02:44:07.002Z,1.80
2023-11-24T02:46:37.582Z,1.30
2023-11-24T02:49:08.380Z,2.20
2023-11-24T02:51:39.307Z,1.77
2023-11-24T02:54:12.584Z,1.80
2023-11-24T02:56:43.981Z,1.90
2023-11-24T02:59:14.844Z,1.50
2023-11-24T03:01:45.625Z,1.10
2023-11-24T03:04:16.308Z,1.57
2023-11-24T03:06:47.977Z,1.50
2023-11-24T03:09:24.323Z,1.70
2023-11-24T03:11:56.131Z,1.70
2023-11-24T03:14:27.205Z,1.37
2023-11-24T03:16:57.859Z,1.30
2023-11-24T03:19:28.582Z,1.20
2023-11-24T03:21:59.169Z,1.20
2023-11-24T03:24:32.440Z,1.40
2023-11-24T03:27:03.297Z,0.83
2023-11-24T03:29:34.865Z,0.97
2023-11-24T03:32:06.183Z,1.00
2023-11-24T03:34:37.571Z,1.10
2023-11-24T03:37:08.430Z,0.97
2023-11-24T03:39:41.608Z,1.40
2023-11-24T03:42:12.211Z,1.20
2023-11-24T03:44:42.765Z,0.73
2023-11-24T03:47:13.860Z,1.00
2023-11-24T03:49:44.494Z,1.17
2023-11-24T03:52:16.521Z,1.07
2023-11-24T03:54:51.572Z,1.20
2023-11-24T03:57:22.716Z,1.20
2023-11-24T03:59:53.234Z,1.20
2023-11-24T04:02:24.269Z,1.00
2023-11-24T04:04:55.362Z,1.40
2023-11-24T04:07:26.456Z,1.10
2023-11-24T04:09:59.743Z,0.93
2023-11-24T04:12:30.412Z,1.10
2023-11-24T04:15:01.013Z,1.50
2023-11-24T04:17:31.729Z,1.07
2023-11-24T04:20:02.258Z,1.17
2023-11-24T04:22:33.009Z,1.20
2023-11-24T04:25:06.498Z,1.30
2023-11-24T04:27:37.348Z,1.20
2023-11-24T04:30:09.254Z,2.03
2023-11-24T04:32:39.879Z,1.70
2023-11-24T04:35:11.984Z,0.93
2023-11-24T04:37:42.572Z,1.17
2023-11-24T04:40:16.045Z,1.10
2023-11-24T04:42:47.132Z,1.73
2023-11-24T04:45:18.136Z,1.00
2023-11-24T04:47:49.100Z,1.00
2023-11-24T04:50:19.824Z,1.00
2023-11-24T04:52:50.482Z,0.93
2023-11-24T04:55:23.861Z,1.10
2023-11-24T04:57:54.452Z,0.70
2023-11-24T05:00:25.200Z,1.00
2023-11-24T05:02:55.774Z,0.97
2023-11-24T05:05:27.000Z,1.00
2023-11-24T05:07:57.609Z,1.33
2023-11-24T05:10:30.856Z,1.40
2023-11-24T05:13:01.598Z,1.33
2023-11-24T05:15:33.161Z,2.30
2023-11-24T05:18:05.566Z,1.63
2023-11-24T05:20:36.193Z,3.17
2023-11-24T05:23:06.835Z,1.70
2023-11-24T05:25:40.179Z,1.63
2023-11-24T05:28:10.956Z,1.93
2023-11-24T05:30:41.924Z,2.23
2023-11-24T05:33:13.715Z,2.23
2023-11-24T05:35:44.483Z,2.50
2023-11-24T05:38:15.277Z,2.63
2023-11-24T05:40:48.631Z,2.83
2023-11-24T05:43:19.295Z,2.60
2023-11-24T05:45:50.127Z,2.80
2023-11-24T05:48:20.738Z,3.40
2023-11-24T05:50:51.406Z,3.17
2023-11-24T05:53:21.998Z,3.80
2023-11-24T05:55:57.388Z,3.00
2023-11-24T05:58:28.024Z,3.17
2023-11-24T06:00:59.417Z,4.17
2023-11-24T06:03:30.708Z,4.20
2023-11-24T06:06:01.557Z,3.40
2023-11-24T06:08:32.291Z,4.67
2023-11-24T06:11:05.789Z,3.53
2023-11-24T06:13:36.359Z,3.13
2023-11-24T06:16:07.164Z,3.20
2023-11-24T06:18:37.893Z,3.43
2023-11-24T06:21:13.272Z,5.40
2023-11-24T06:23:46.871Z,3.83
2023-11-24T06:26:20.131Z,3.20
2023-11-24T06:28:50.777Z,4.00
2023-11-24T06:31:21.483Z,3.67
2023-11-24T06:33:52.218Z,4.80
2023-11-24T06:36:23.453Z,3.20
2023-11-24T06:38:54.047Z,3.77
2023-11-24T06:41:27.646Z,2.47
2023-11-24T06:43:58.473Z,2.90
2023-11-24T06:46:29.084Z,3.43
2023-11-24T06:49:01.116Z,2.80
2023-11-24T06:51:31.778Z,2.90
2023-11-24T06:54:02.750Z,2.60
2023-11-24T06:56:35.939Z,2.63
2023-11-24T06:59:06.962Z,3.40
2023-11-24T07:01:38.133Z,3.93
2023-11-24T07:04:09.603Z,3.50
2023-11-24T07:06:40.688Z,3.37
2023-11-24T07:09:13.144Z,4.40
2023-11-24T07:11:48.811Z,2.93
2023-11-24T07:14:19.658Z,2.60
2023-11-24T07:16:50.237Z,3.10
2023-11-24T07:19:23.233Z,3.10
2023-11-24T07:21:53.981Z,3.80
2023-11-24T07:24:24.941Z,2.67
2023-11-24T07:27:00.930Z,3.27
2023-11-24T07:29:33.076Z,2.77
2023-11-24T07:32:04.535Z,5.10
2023-11-24T07:34:35.482Z,2.47
2023-11-24T07:37:07.984Z,9.00
2023-11-24T07:39:38.697Z,2.50
2023-11-24T07:42:11.932Z,3.10
2023-11-24T07:44:43.610Z,2.60
2023-11-24T07:47:16.186Z,2.70
2023-11-24T07:49:46.792Z,3.17
2023-11-24T07:52:17.462Z,3.40
2023-11-24T07:54:48.112Z,2.83
2023-11-24T07:57:22.071Z,2.43
2023-11-24T07:59:52.816Z,4.00
2023-11-24T08:02:23.486Z,2.57
2023-11-24T08:04:54.234Z,2.10
2023-11-24T08:07:25.260Z,2.47
2023-11-24T08:10:00.522Z,4.07
2023-11-24T08:12:33.752Z,2.70
2023-11-24T08:15:04.458Z,6.50
2023-11-24T08:17:35.040Z,3.30
2023-11-24T08:20:06.750Z,4.07
2023-11-24T08:22:37.314Z,2.97
2023-11-24T08:25:10.329Z,3.60
2023-11-24T08:27:45.800Z,4.70
2023-11-24T08:30:18.171Z,4.10
2023-11-24T08:32:50.173Z,4.00
2023-11-24T08:35:21.457Z,3.77
2023-11-24T08:37:52.280Z,4.17
2023-11-24T08:40:25.540Z,3.90
2023-11-24T08:43:00.522Z,3.20
2023-11-24T08:45:31.108Z,4.10
2023-11-24T08:48:01.908Z,4.00
2023-11-24T08:50:32.444Z,3.10
2023-11-24T08:53:05.721Z,2.83
2023-11-24T08:55:36.341Z,3.80
2023-11-24T08:58:09.504Z,3.33
2023-11-24T09:00:40.188Z,2.43
2023-11-24T09:03:10.854Z,3.30
2023-11-24T09:05:42.838Z,3.00
2023-11-24T09:08:13.345Z,3.33
2023-11-24T09:10:44.196Z,2.93
2023-11-24T09:13:17.515Z,3.40
2023-11-24T09:15:48.274Z,3.53
2023-11-24T09:18:18.931Z,3.00
2023-11-24T09:20:50.123Z,2.83
2023-11-24T09:23:21.510Z,3.00
2023-11-24T09:25:52.865Z,3.00
2023-11-24T09:28:26.231Z,3.03
2023-11-24T09:30:56.951Z,4.37
2023-11-24T09:33:27.892Z,2.70
2023-11-24T09:35:58.486Z,2.87
2023-11-24T09:38:29.307Z,3.33
2023-11-24T09:41:04.780Z,2.17
2023-11-24T09:43:39.407Z,3.23
2023-11-24T09:46:10.743Z,2.90
2023-11-24T09:48:46.311Z,2.83
2023-11-24T09:51:18.490Z,3.07
2023-11-24T09:53:49.287Z,3.87
2023-11-24T09:56:19.979Z,3.10
2023-11-24T09:58:53.298Z,3.47
2023-11-24T10:01:24.903Z,3.07
2023-11-24T10:03:57.086Z,2.60
2023-11-24T10:06:28.833Z,3.00
2023-11-24T10:09:00.597Z,5.17
2023-11-24T10:11:34.644Z,3.17
2023-11-24T10:14:08.548Z,2.83
2023-11-24T10:16:42.644Z,3.00
2023-11-24T10:19:21.945Z,4.50
2023-11-24T10:21:56.121Z,2.53
2023-11-24T10:24:29.309Z,2.37
2023-11-24T10:26:59.853Z,2.27
2023-11-24T10:29:35.515Z,3.90
2023-11-24T10:32:07.731Z,3.23
2023-11-24T10:34:38.367Z,2.90
2023-11-24T10:37:09.876Z,2.83
2023-11-24T10:39:42.177Z,3.63
2023-11-24T10:42:16.774Z,3.00
2023-11-24T10:44:58.301Z,3.83
2023-11-24T10:47:33.910Z,3.27
2023-11-24T10:50:11.168Z,4.00
2023-11-24T10:52:52.399Z,3.43
2023-11-24T10:55:23.318Z,3.00
2023-11-24T10:57:54.803Z,3.00
2023-11-24T11:00:28.761Z,2.20
2023-11-24T11:03:00.779Z,2.73
2023-11-24T11:05:45.808Z,3.20
2023-11-24T11:08:21.918Z,2.70
2023-11-24T11:11:13.836Z,2.67
2023-11-24T11:13:46.989Z,3.20
2023-11-24T11:16:22.017Z,3.23
2023-11-24T11:18:52.712Z,3.70
2023-11-24T11:21:41.917Z,4.00
2023-11-24T11:24:30.029Z,2.13
2023-11-24T11:27:01.201Z,3.83
2023-11-24T11:29:33.645Z,2.27
2023-11-24T11:32:15.256Z,3.17
2023-11-24T11:34:45.888Z,1.90
2023-11-24T11:37:16.800Z,2.40
2023-11-24T11:39:55.333Z,2.67
2023-11-24T11:42:33.839Z,2.63
2023-11-24T11:45:11.431Z,2.33
2023-11-24T11:47:57.853Z,3.13
2023-11-24T11:50:28.485Z,3.00
2023-11-24T11:53:02.137Z,2.70
2023-11-24T11:55:33.070Z,2.00
2023-11-24T11:58:05.587Z,2.70
2023-11-24T12:00:36.329Z,2.57
2023-11-24T12:03:09.566Z,2.47
2023-11-24T12:05:42.324Z,3.10
2023-11-24T12:08:13.157Z,2.30
2023-11-24T12:10:46.986Z,3.10
2023-11-24T12:13:17.731Z,2.57
2023-11-24T12:15:49.298Z,2.67
2023-11-24T12:18:23.206Z,3.03
2023-11-24T12:20:54.858Z,2.23
2023-11-24T12:23:27.397Z,3.67
2023-11-24T12:25:58.300Z,2.60
2023-11-24T12:28:29.041Z,2.23
2023-11-24T12:30:59.906Z,4.33
2023-11-24T12:33:34.783Z,2.87
2023-11-24T12:36:06.349Z,2.53
2023-11-24T12:38:37.739Z,2.57
2023-11-24T12:41:09.158Z,3.93
2023-11-24T12:43:40.147Z,3.57
2023-11-24T12:46:21.576Z,3.00
2023-11-24T12:49:05.847Z,3.03
2023-11-24T12:51:37.254Z,2.20
2023-11-24T12:54:09.958Z,1.80
2023-11-24T12:56:40.618Z,2.10
2023-11-24T12:59:12.262Z,1.60
2023-11-24T13:01:42.916Z,1.40
2023-11-24T13:04:16.396Z,1.87
2023-11-24T13:06:48.674Z,1.93
2023-11-24T13:09:20.003Z,2.60
2023-11-24T13:11:50.937Z,2.93
2023-11-24T13:14:23.844Z,3.40
2023-11-24T13:16:54.557Z,3.77
2023-11-24T13:19:28.156Z,2.80
2023-11-24T13:21:58.724Z,2.77
2023-11-24T13:24:30.259Z,2.47
2023-11-24T13:27:01.216Z,1.90
2023-11-24T13:29:31.771Z,1.17
2023-11-24T13:32:02.819Z,2.60
2023-11-24T13:34:36.148Z,2.10
2023-11-24T13:37:08.321Z,1.40
2023-11-24T13:39:39.202Z,1.90
2023-11-24T13:42:10.364Z,2.00
2023-11-24T13:44:41.644Z,2.70
2023-11-24T13:47:14.531Z,2.63
2023-11-24T13:49:50.437Z,2.13
2023-11-24T13:52:21.210Z,3.10
2023-11-24T13:54:52.321Z,2.87
2023-11-24T13:57:23.786Z,2.53
2023-11-24T13:59:54.278Z,3.10
2023-11-24T14:02:26.829Z,3.10
2023-11-24T14:05:00.041Z,3.73
2023-11-24T14:07:30.842Z,2.63
2023-11-24T14:10:01.497Z,3.03
2023-11-24T14:12:32.120Z,2.53
2023-11-24T14:15:05.412Z,4.93
2023-11-24T14:17:37.544Z,4.17
2023-11-24T14:20:12.533Z,4.43
2023-11-24T14:22:43.322Z,2.97
2023-11-24T14:25:14.303Z,3.70
2023-11-24T14:27:44.970Z,2.90
2023-11-24T14:30:16.364Z,2.83
2023-11-24T14:32:46.973Z,3.07
2023-11-24T14:35:22.106Z,3.10
2023-11-24T14:37:54.002Z,2.60
2023-11-24T14:40:24.834Z,3.13
2023-11-24T14:42:55.634Z,3.17
2023-11-24T14:45:26.797Z,3.20
2023-11-24T14:47:57.603Z,2.87
2023-11-24T14:50:33.080Z,3.10
2023-11-24T14:53:04.990Z,2.47
2023-11-24T14:55:36.325Z,3.20
2023-11-24T14:58:07.625Z,4.00
2023-11-24T15:00:39.600Z,3.20
2023-11-24T15:03:16.033Z,4.00
2023-11-24T15:05:55.877Z,3.43
2023-11-24T15:08:28.348Z,4.40
2023-11-24T15:11:05.211Z,3.17
2023-11-24T15:13:37.442Z,1.20
2023-11-24T15:16:13.552Z,0.70
2023-11-24T15:18:46.897Z,0.50
2023-11-24T15:21:29.901Z,0.50
2023-11-24T15:24:01.068Z,0.50
2023-11-24T15:26:33.815Z,0.50
2023-11-24T15:29:06.599Z,0.50
2023-11-24T15:31:39.921Z,0.50
2023-11-24T15:34:10.630Z,0.50
2023-11-24T15:36:44.137Z,0.50
2023-11-24T15:39:30.488Z,0.50
2023-11-24T15:42:01.707Z,0.50
2023-11-24T15:44:34.265Z,0.50
2023-11-24T15:47:09.097Z,0.50
2023-11-24T15:49:43.042Z,0.50
2023-11-24T15:52:16.931Z,0.50
2023-11-24T15:54:47.590Z,0.50
2023-11-24T15:57:18.295Z,0.50
2023-11-24T15:59:48.900Z,0.50
2023-11-24T16:02:25.165Z,0.50
2023-11-24T16:04:58.243Z,0.50
2023-11-24T16:07:34.435Z,0.50
2023-11-24T16:10:16.808Z,0.50
2023-11-24T16:12:49.973Z,0.50
2023-11-24T16:15:20.694Z,0.50
2023-11-24T16:17:52.505Z,0.50
2023-11-24T16:20:23.585Z,0.50
2023-11-24T16:22:56.706Z,0.50
2023-11-24T16:25:27.878Z,0.50
2023-11-24T16:27:58.580Z,0.50
2023-11-24T16:30:29.964Z,0.50
2023-11-24T16:33:00.780Z,0.50
2023-11-24T16:35:31.308Z,0.50
2023-11-24T16:38:04.828Z,0.50
2023-11-24T16:40:36.443Z,2.03
2023-11-24T16:43:07.119Z,1.53
2023-11-24T16:45:39.468Z,1.57
2023-11-24T16:48:10.396Z,1.33
2023-11-24T16:50:41.286Z,1.20
2023-11-24T16:53:16.768Z,1.00
2023-11-24T16:55:48.558Z,1.20
2023-11-24T16:58:20.062Z,1.50
2023-11-24T17:00:50.770Z,1.43
2023-11-24T17:03:21.498Z,1.83
2023-11-24T17:05:52.175Z,1.30
2023-11-24T17:08:25.483Z,1.63
2023-11-24T17:10:56.017Z,1.30
2023-11-24T17:13:26.654Z,1.47
2023-11-24T17:15:57.225Z,1.63
2023-11-24T17:18:28.386Z,1.40
2023-11-24T17:20:59.164Z,1.47
2023-11-24T17:23:33.788Z,1.13
2023-11-24T17:26:04.443Z,1.13
2023-11-24T17:28:36.176Z,2.10
2023-11-24T17:31:09.547Z,2.10
2023-11-24T17:33:41.514Z,1.20
2023-11-24T17:36:13.206Z,1.87
2023-11-24T17:38:46.364Z,1.87
2023-11-24T17:41:17.228Z,1.60
2023-11-24T17:43:47.916Z,1.67
2023-11-24T17:46:18.687Z,1.67
2023-11-24T17:48:49.686Z,1.00
2023-11-24T17:51:20.612Z,1.47
2023-11-24T17:53:53.918Z,1.20
2023-11-24T17:56:24.518Z,1.40
2023-11-24T17:58:56.499Z,2.30
2023-11-24T18:01:27.390Z,3.07
2023-11-24T18:03:58.098Z,2.60
2023-11-24T18:06:29.621Z,2.47
2023-11-24T18:09:03.198Z,2.30
2023-11-24T18:11:34.474Z,2.67
2023-11-24T18:14:07.194Z,2.43
2023-11-24T18:16:37.814Z,2.50
2023-11-24T18:19:08.497Z,2.10
2023-11-24T18:21:39.062Z,2.67
2023-11-24T18:24:12.747Z,2.03
2023-11-24T18:26:43.360Z,3.20
2023-11-24T18:29:15.239Z,1.70
2023-11-24T18:31:46.336Z,2.40
2023-11-24T18:34:17.157Z,2.27
2023-11-24T18:36:47.950Z,2.00
2023-11-24T18:39:21.127Z,2.57
2023-11-24T18:41:51.693Z,6.53
2023-11-24T18:44:22.310Z,3.33
2023-11-24T18:46:52.850Z,2.60
2023-11-24T18:49:24.684Z,2.27
2023-11-24T18:51:55.311Z,2.73
2023-11-24T18:54:30.025Z,2.50
2023-11-24T18:57:00.629Z,2.17
2023-11-24T18:59:32.178Z,2.10
2023-11-24T19:02:02.774Z,1.60
2023-11-24T19:04:33.445Z,1.40
2023-11-24T19:07:04.649Z,1.40
2023-11-24T19:09:37.943Z,2.67
2023-11-24T19:12:09.681Z,1.70
2023-11-24T19:14:40.255Z,1.37
2023-11-24T19:17:11.137Z,1.43
2023-11-24T19:19:41.739Z,1.50
2023-11-24T19:22:12.339Z,2.00
2023-11-24T19:24:45.685Z,2.03
2023-11-24T19:27:16.398Z,1.40
2023-11-24T19:29:46.941Z,1.80
2023-11-24T19:32:17.582Z,3.07
2023-11-24T19:34:48.175Z,1.93
2023-11-24T19:37:18.740Z,2.10
2023-11-24T19:39:51.895Z,3.10
2023-11-24T19:42:22.901Z,2.10
2023-11-24T19:44:53.488Z,2.93
2023-11-24T19:47:25.937Z,2.30
2023-11-24T19:49:57.721Z,2.90
2023-11-24T19:52:28.293Z,2.17
2023-11-24T19:55:01.596Z,2.23
2023-11-24T19:57:33.649Z,3.00
2023-11-24T20:00:09.388Z,2.10
2023-11-24T20:02:40.174Z,1.70
2023-11-24T20:05:11.751Z,2.10
2023-11-24T20:07:42.296Z,1.60
2023-11-24T20:10:16.065Z,2.43
2023-11-24T20:12:46.697Z,1.30
2023-11-24T20:15:17.387Z,3.37
2023-11-24T20:17:48.571Z,2.03
2023-11-24T20:20:19.509Z,1.40
2023-11-24T20:22:50.165Z,1.60
2023-11-24T20:25:23.435Z,1.60
2023-11-24T20:27:54.182Z,1.73
2023-11-24T20:30:24.858Z,2.13
2023-11-24T20:32:57.279Z,1.90
2023-11-24T20:35:28.353Z,1.70
2023-11-24T20:37:59.015Z,1.60
2023-11-24T20:40:32.341Z,1.73
2023-11-24T20:43:05.634Z,3.00
2023-11-24T20:45:36.891Z,1.60
2023-11-24T20:48:10.242Z,2.00
2023-11-24T20:50:41.364Z,1.90
2023-11-24T20:53:12.936Z,1.83
2023-11-24T20:55:46.158Z,1.80
2023-11-24T20:58:17.436Z,1.67
2023-11-24T21:00:48.109Z,2.23
2023-11-24T21:03:18.729Z,2.10
2023-11-24T21:05:49.414Z,1.90
2023-11-24T21:08:19.982Z,1.43
2023-11-24T21:10:54.064Z,1.70
2023-11-24T21:13:25.395Z,1.53
2023-11-24T21:15:56.057Z,1.50
2023-11-24T21:18:28.522Z,1.63
2023-11-24T21:20:59.274Z,2.73
2023-11-24T21:23:29.819Z,2.03
2023-11-24T21:26:04.737Z,1.40
2023-11-24T21:28:35.369Z,1.13
2023-11-24T21:31:07.355Z,1.47
2023-11-24T21:33:39.038Z,1.57
2023-11-24T21:36:11.268Z,1.97
2023-11-24T21:38:41.890Z,1.33
2023-11-24T21:41:15.420Z,1.63
2023-11-24T21:43:46.051Z,1.57
2023-11-24T21:46:22.585Z,1.40
2023-11-24T21:48:53.458Z,1.23
2023-11-24T21:51:24.027Z,1.77
2023-11-24T21:53:54.544Z,1.77
2023-11-24T21:56:31.530Z,1.50
2023-11-24T21:59:02.201Z,1.00
2023-11-24T22:01:33.124Z,1.03
2023-11-24T22:04:04.497Z,1.57
2023-11-24T22:06:37.040Z,1.50
2023-11-24T22:09:08.688Z,1.60
2023-11-24T22:11:41.821Z,0.90
2023-11-24T22:14:12.394Z,1.40
2023-11-24T22:16:43.266Z,1.20
2023-11-24T22:19:14.234Z,1.53
2023-11-24T22:21:44.873Z,1.60
2023-11-24T22:24:15.552Z,1.40
2023-11-24T22:26:48.978Z,1.90
2023-11-24T22:29:19.508Z,1.60
2023-11-24T22:31:50.248Z,1.27
2023-11-24T22:34:20.831Z,1.67
2023-11-24T22:36:51.405Z,1.87
2023-11-24T22:39:22.262Z,1.47
2023-11-24T22:41:55.684Z,1.20
2023-11-24T22:44:27.159Z,1.50
2023-11-24T22:46:58.301Z,1.27
2023-11-24T22:49:29.102Z,1.50
2023-11-24T22:52:00.258Z,1.50
2023-11-24T22:54:30.847Z,2.23
2023-11-24T22:57:04.506Z,1.13
2023-11-24T22:59:35.088Z,1.40
2023-11-24T23:02:06.009Z,1.57
2023-11-24T23:04:36.893Z,1.57
2023-11-24T23:07:08.382Z,1.47
2023-11-24T23:09:39.799Z,1.57
2023-11-24T23:12:13.753Z,1.17
2023-11-24T23:14:44.386Z,1.37
2023-11-24T23:17:15.175Z,1.10
2023-11-24T23:19:46.082Z,1.13
2023-11-24T23:22:26.944Z,1.27
2023-11-24T23:25:02.174Z,1.30
2023-11-24T23:27:36.258Z,1.53
2023-11-24T23:30:09.248Z,1.00
2023-11-24T23:32:39.852Z,1.70
2023-11-24T23:35:13.099Z,1.53
2023-11-24T23:37:46.232Z,1.60
2023-11-24T23:40:21.032Z,1.70
2023-11-24T23:42:54.255Z,1.43
2023-11-24T23:45:26.392Z,1.30
2023-11-24T23:47:57.017Z,1.43
2023-11-24T23:50:31.003Z,1.27
2023-11-24T23:53:01.973Z,1.47
2023-11-24T23:55:32.880Z,1.43
2023-11-24T23:58:06.080Z,2.13
